sensor_id;sensor_type;location;lat;lon;timestamp;temperature;humidity
43647;DHT22;56152;49.996;18.980;2023-02-03T00:04:36;-0.30;96.80
43647;DHT22;56152;49.996;18.980;2023-02-03T00:09:40;-0.40;96.80
43647;DHT22;56152;49.996;18.980;2023-02-03T00:14:55;-0.40;96.90
43647;DHT22;56152;49.996;18.980;2023-02-03T00:19:57;-0.40;96.90
43647;DHT22;56152;49.996;18.980;2023-02-03T00:25:07;-0.40;96.90
43647;DHT22;56152;49.996;18.980;2023-02-03T00:30:10;-0.40;96.90
43647;DHT22;56152;49.996;18.980;2023-02-03T00:35:13;-0.30;96.90
43647;DHT22;56152;49.996;18.980;2023-02-03T00:40:26;-0.30;96.80
43647;DHT22;56152;49.996;18.980;2023-02-03T00:45:32;-0.30;96.80
43647;DHT22;56152;49.996;18.980;2023-02-03T00:50:35;-0.30;96.80
43647;DHT22;56152;49.996;18.980;2023-02-03T00:55:42;-0.30;96.70
43647;DHT22;56152;49.996;18.980;2023-02-03T01:00:45;-0.30;96.70
43647;DHT22;56152;49.996;18.980;2023-02-03T01:05:47;-0.30;96.70
43647;DHT22;56152;49.996;18.980;2023-02-03T01:10:54;-0.30;96.70
43647;DHT22;56152;49.996;18.980;2023-02-03T01:15:55;-0.30;96.60
43647;DHT22;56152;49.996;18.980;2023-02-03T01:21:05;-0.40;96.50
43647;DHT22;56152;49.996;18.980;2023-02-03T01:26:12;-0.40;96.60
43647;DHT22;56152;49.996;18.980;2023-02-03T01:31:17;-0.50;96.50
43647;DHT22;56152;49.996;18.980;2023-02-03T01:36:22;-0.50;96.60
43647;DHT22;56152;49.996;18.980;2023-02-03T01:41:31;-0.50;96.50
43647;DHT22;56152;49.996;18.980;2023-02-03T01:46:36;-0.50;96.50
43647;DHT22;56152;49.996;18.980;2023-02-03T01:51:41;-0.60;96.50
43647;DHT22;56152;49.996;18.980;2023-02-03T01:56:53;-0.60;96.50
43647;DHT22;56152;49.996;18.980;2023-02-03T02:01:57;-0.60;96.50
43647;DHT22;56152;49.996;18.980;2023-02-03T02:06:59;-0.70;96.50
43647;DHT22;56152;49.996;18.980;2023-02-03T02:12:08;-0.70;96.50
43647;DHT22;56152;49.996;18.980;2023-02-03T02:17:28;-0.60;96.50
43647;DHT22;56152;49.996;18.980;2023-02-03T02:22:47;-0.60;96.50
43647;DHT22;56152;49.996;18.980;2023-02-03T02:28:12;-0.60;96.50
43647;DHT22;56152;49.996;18.980;2023-02-03T02:33:31;-0.60;96.50
43647;DHT22;56152;49.996;18.980;2023-02-03T02:38:46;-0.60;96.50
43647;DHT22;56152;49.996;18.980;2023-02-03T02:43:56;-0.60;96.50
43647;DHT22;56152;49.996;18.980;2023-02-03T02:49:05;-0.70;96.50
43647;DHT22;56152;49.996;18.980;2023-02-03T02:54:12;-0.60;96.50
43647;DHT22;56152;49.996;18.980;2023-02-03T02:59:15;-0.80;96.50
43647;DHT22;56152;49.996;18.980;2023-02-03T03:04:23;-0.90;96.50
43647;DHT22;56152;49.996;18.980;2023-02-03T03:09:29;-0.90;96.60
43647;DHT22;56152;49.996;18.980;2023-02-03T03:14:38;-1.00;96.90
43647;DHT22;56152;49.996;18.980;2023-02-03T03:19:49;-1.10;96.70
43647;DHT22;56152;49.996;18.980;2023-02-03T03:24:59;-1.10;96.80
43647;DHT22;56152;49.996;18.980;2023-02-03T03:30:06;-1.10;96.80
43647;DHT22;56152;49.996;18.980;2023-02-03T03:35:12;-1.20;96.80
43647;DHT22;56152;49.996;18.980;2023-02-03T03:40:19;-1.20;96.80
43647;DHT22;56152;49.996;18.980;2023-02-03T03:45:25;-1.20;96.90
43647;DHT22;56152;49.996;18.980;2023-02-03T03:50:35;-1.20;96.90
43647;DHT22;56152;49.996;18.980;2023-02-03T03:55:39;-1.20;96.90
43647;DHT22;56152;49.996;18.980;2023-02-03T04:00:45;-1.30;96.80
43647;DHT22;56152;49.996;18.980;2023-02-03T04:05:51;-1.20;96.90
43647;DHT22;56152;49.996;18.980;2023-02-03T04:10:53;-1.20;96.90
43647;DHT22;56152;49.996;18.980;2023-02-03T04:15:55;-1.20;96.90
43647;DHT22;56152;49.996;18.980;2023-02-03T04:21:03;-1.30;96.80
43647;DHT22;56152;49.996;18.980;2023-02-03T04:26:05;-1.20;96.80
43647;DHT22;56152;49.996;18.980;2023-02-03T04:31:07;-1.20;96.80
43647;DHT22;56152;49.996;18.980;2023-02-03T04:36:12;-1.20;96.80
43647;DHT22;56152;49.996;18.980;2023-02-03T04:41:14;-1.20;96.90
43647;DHT22;56152;49.996;18.980;2023-02-03T04:46:16;-1.20;96.90
43647;DHT22;56152;49.996;18.980;2023-02-03T04:51:22;-1.20;96.90
43647;DHT22;56152;49.996;18.980;2023-02-03T04:56:24;-1.20;96.80
43647;DHT22;56152;49.996;18.980;2023-02-03T05:01:26;-1.20;96.80
43647;DHT22;56152;49.996;18.980;2023-02-03T05:06:34;-1.20;96.80
43647;DHT22;56152;49.996;18.980;2023-02-03T05:11:36;-1.30;96.80
43647;DHT22;56152;49.996;18.980;2023-02-03T05:16:43;-1.30;96.80
43647;DHT22;56152;49.996;18.980;2023-02-03T05:21:47;-1.30;96.90
43647;DHT22;56152;49.996;18.980;2023-02-03T05:26:55;-1.20;96.90
43647;DHT22;56152;49.996;18.980;2023-02-03T05:31:57;-1.20;96.80
43647;DHT22;56152;49.996;18.980;2023-02-03T05:37:03;-1.30;96.80
43647;DHT22;56152;49.996;18.980;2023-02-03T05:42:05;-1.30;96.80
43647;DHT22;56152;49.996;18.980;2023-02-03T05:47:10;-1.30;96.80
43647;DHT22;56152;49.996;18.980;2023-02-03T05:52:15;-1.20;96.80
43647;DHT22;56152;49.996;18.980;2023-02-03T05:57:17;-1.20;96.80
43647;DHT22;56152;49.996;18.980;2023-02-03T06:02:19;-1.20;96.70
43647;DHT22;56152;49.996;18.980;2023-02-03T06:07:23;-1.20;96.70
43647;DHT22;56152;49.996;18.980;2023-02-03T06:12:25;-1.10;96.70
43647;DHT22;56152;49.996;18.980;2023-02-03T06:17:27;-1.10;96.70
43647;DHT22;56152;49.996;18.980;2023-02-03T06:22:31;-1.10;96.60
43647;DHT22;56152;49.996;18.980;2023-02-03T06:27:37;-1.00;96.60
43647;DHT22;56152;49.996;18.980;2023-02-03T06:32:40;-1.00;96.50
43647;DHT22;56152;49.996;18.980;2023-02-03T06:37:45;-0.90;96.50
43647;DHT22;56152;49.996;18.980;2023-02-03T06:42:48;-0.90;96.40
43647;DHT22;56152;49.996;18.980;2023-02-03T06:47:51;-0.90;96.40
43647;DHT22;56152;49.996;18.980;2023-02-03T06:52:58;-0.80;96.30
43647;DHT22;56152;49.996;18.980;2023-02-03T06:58:01;-0.80;96.20
43647;DHT22;56152;49.996;18.980;2023-02-03T07:03:03;-0.80;96.10
43647;DHT22;56152;49.996;18.980;2023-02-03T07:08:11;-0.70;96.10
43647;DHT22;56152;49.996;18.980;2023-02-03T07:13:13;-0.70;96.10
43647;DHT22;56152;49.996;18.980;2023-02-03T07:18:16;-0.70;96.00
43647;DHT22;56152;49.996;18.980;2023-02-03T07:23:25;-0.60;96.00
43647;DHT22;56152;49.996;18.980;2023-02-03T07:28:28;-0.50;95.90
43647;DHT22;56152;49.996;18.980;2023-02-03T07:33:32;-0.50;95.80
43647;DHT22;56152;49.996;18.980;2023-02-03T07:38:37;-0.40;95.70
43647;DHT22;56152;49.996;18.980;2023-02-03T07:43:39;-0.40;95.50
43647;DHT22;56152;49.996;18.980;2023-02-03T07:48:45;-0.30;95.50
43647;DHT22;56152;49.996;18.980;2023-02-03T07:53:50;-0.30;95.40
43647;DHT22;56152;49.996;18.980;2023-02-03T07:58:52;-0.20;95.30
43647;DHT22;56152;49.996;18.980;2023-02-03T08:03:55;-0.10;95.10
43647;DHT22;56152;49.996;18.980;2023-02-03T08:08:58;-0.10;94.90
43647;DHT22;56152;49.996;18.980;2023-02-03T08:14:00;0.00;95.00
43647;DHT22;56152;49.996;18.980;2023-02-03T08:19:02;0.10;94.90
43647;DHT22;56152;49.996;18.980;2023-02-03T08:24:07;0.20;94.70
43647;DHT22;56152;49.996;18.980;2023-02-03T08:29:12;0.20;94.60
43647;DHT22;56152;49.996;18.980;2023-02-03T08:34:14;0.20;94.50
43647;DHT22;56152;49.996;18.980;2023-02-03T08:39:21;0.20;94.50
43647;DHT22;56152;49.996;18.980;2023-02-03T08:44:23;0.10;94.60
43647;DHT22;56152;49.996;18.980;2023-02-03T08:49:27;0.10;94.70
43647;DHT22;56152;49.996;18.980;2023-02-03T08:54:32;0.10;94.80
43647;DHT22;56152;49.996;18.980;2023-02-03T08:59:38;0.10;95.00
43647;DHT22;56152;49.996;18.980;2023-02-03T09:04:41;0.10;95.10
43647;DHT22;56152;49.996;18.980;2023-02-03T09:09:46;0.10;95.20
43647;DHT22;56152;49.996;18.980;2023-02-03T09:14:48;0.20;95.30
43647;DHT22;56152;49.996;18.980;2023-02-03T09:19:50;0.20;95.20
43647;DHT22;56152;49.996;18.980;2023-02-03T09:24:55;0.30;95.20
43647;DHT22;56152;49.996;18.980;2023-02-03T09:29:57;0.30;95.10
43647;DHT22;56152;49.996;18.980;2023-02-03T09:35:00;0.30;95.10
43647;DHT22;56152;49.996;18.980;2023-02-03T09:40:09;0.20;95.10
43647;DHT22;56152;49.996;18.980;2023-02-03T09:45:23;0.10;95.20
43647;DHT22;56152;49.996;18.980;2023-02-03T09:50:30;0.10;95.30
43647;DHT22;56152;49.996;18.980;2023-02-03T09:55:39;0.10;95.50
43647;DHT22;56152;49.996;18.980;2023-02-03T10:00:44;0.10;95.60
43647;DHT22;56152;49.996;18.980;2023-02-03T10:11:27;0.00;95.60
43647;DHT22;56152;49.996;18.980;2023-02-03T10:16:52;0.00;95.70
43647;DHT22;56152;49.996;18.980;2023-02-03T10:21:57;-0.10;95.80
43647;DHT22;56152;49.996;18.980;2023-02-03T10:27:07;-0.10;96.00
43647;DHT22;56152;49.996;18.980;2023-02-03T10:32:14;0.00;96.00
43647;DHT22;56152;49.996;18.980;2023-02-03T10:37:24;0.00;96.10
43647;DHT22;56152;49.996;18.980;2023-02-03T10:42:29;0.10;96.00
43647;DHT22;56152;49.996;18.980;2023-02-03T10:47:49;0.00;96.30
43647;DHT22;56152;49.996;18.980;2023-02-03T10:53:22;0.10;96.20
43647;DHT22;56152;49.996;18.980;2023-02-03T10:58:26;0.10;96.10
43647;DHT22;56152;49.996;18.980;2023-02-03T11:03:29;0.10;96.20
43647;DHT22;56152;49.996;18.980;2023-02-03T11:08:37;0.10;96.20
43647;DHT22;56152;49.996;18.980;2023-02-03T11:13:42;0.20;96.30
43647;DHT22;56152;49.996;18.980;2023-02-03T11:18:52;0.20;96.30
43647;DHT22;56152;49.996;18.980;2023-02-03T11:24:02;0.40;96.40
43647;DHT22;56152;49.996;18.980;2023-02-03T11:29:05;0.40;96.30
43647;DHT22;56152;49.996;18.980;2023-02-03T11:34:15;0.50;96.60
43647;DHT22;56152;49.996;18.980;2023-02-03T11:39:26;0.60;96.40
43647;DHT22;56152;49.996;18.980;2023-02-03T11:44:29;0.60;96.40
43647;DHT22;56152;49.996;18.980;2023-02-03T11:50:06;0.60;96.40
43647;DHT22;56152;49.996;18.980;2023-02-03T11:55:26;0.70;96.40
43647;DHT22;56152;49.996;18.980;2023-02-03T12:00:38;0.70;96.50
43647;DHT22;56152;49.996;18.980;2023-02-03T12:05:48;0.70;96.50
43647;DHT22;56152;49.996;18.980;2023-02-03T12:11:05;1.00;96.90
43647;DHT22;56152;49.996;18.980;2023-02-03T12:16:28;1.10;96.40
43647;DHT22;56152;49.996;18.980;2023-02-03T12:21:42;1.20;96.30
43647;DHT22;56152;49.996;18.980;2023-02-03T12:26:52;1.20;96.30
43647;DHT22;56152;49.996;18.980;2023-02-03T12:32:05;1.30;96.30
43647;DHT22;56152;49.996;18.980;2023-02-03T12:37:09;1.30;96.30
43647;DHT22;56152;49.996;18.980;2023-02-03T12:42:29;1.20;96.70
43647;DHT22;56152;49.996;18.980;2023-02-03T12:47:41;1.30;96.40
43647;DHT22;56152;49.996;18.980;2023-02-03T12:52:46;1.30;96.40
43647;DHT22;56152;49.996;18.980;2023-02-03T12:57:56;1.30;96.50
43647;DHT22;56152;49.996;18.980;2023-02-03T13:03:14;1.30;96.50
43647;DHT22;56152;49.996;18.980;2023-02-03T13:08:30;1.30;96.60
43647;DHT22;56152;49.996;18.980;2023-02-03T13:13:41;1.40;97.00
43647;DHT22;56152;49.996;18.980;2023-02-03T13:18:51;1.40;96.70
43647;DHT22;56152;49.996;18.980;2023-02-03T13:23:55;1.40;96.80
43647;DHT22;56152;49.996;18.980;2023-02-03T13:29:08;1.40;96.80
43647;DHT22;56152;49.996;18.980;2023-02-03T13:34:37;1.40;96.90
43647;DHT22;56152;49.996;18.980;2023-02-03T13:45:16;1.30;96.90
43647;DHT22;56152;49.996;18.980;2023-02-03T13:50:23;1.10;97.00
43647;DHT22;56152;49.996;18.980;2023-02-03T13:55:32;1.10;97.10
43647;DHT22;56152;49.996;18.980;2023-02-03T14:01:26;1.10;97.20
43647;DHT22;56152;49.996;18.980;2023-02-03T14:06:57;1.10;97.20
43647;DHT22;56152;49.996;18.980;2023-02-03T14:12:30;1.20;97.30
43647;DHT22;56152;49.996;18.980;2023-02-03T14:18:18;1.20;97.30
43647;DHT22;56152;49.996;18.980;2023-02-03T14:23:41;1.20;97.30
43647;DHT22;56152;49.996;18.980;2023-02-03T14:28:46;1.20;97.30
43647;DHT22;56152;49.996;18.980;2023-02-03T14:34:07;1.20;97.30
43647;DHT22;56152;49.996;18.980;2023-02-03T14:39:37;1.20;97.30
43647;DHT22;56152;49.996;18.980;2023-02-03T14:44:49;1.20;97.40
43647;DHT22;56152;49.996;18.980;2023-02-03T14:50:12;1.30;97.40
43647;DHT22;56152;49.996;18.980;2023-02-03T14:55:34;1.30;97.40
43647;DHT22;56152;49.996;18.980;2023-02-03T15:00:38;1.30;97.40
43647;DHT22;56152;49.996;18.980;2023-02-03T15:05:43;1.40;97.50
43647;DHT22;56152;49.996;18.980;2023-02-03T15:10:46;1.40;97.50
43647;DHT22;56152;49.996;18.980;2023-02-03T15:15:50;1.50;97.60
43647;DHT22;56152;49.996;18.980;2023-02-03T15:20:55;1.50;97.50
43647;DHT22;56152;49.996;18.980;2023-02-03T15:25:59;1.60;97.60
43647;DHT22;56152;49.996;18.980;2023-02-03T15:31:05;1.70;97.60
43647;DHT22;56152;49.996;18.980;2023-02-03T15:36:16;1.80;97.60
43647;DHT22;56152;49.996;18.980;2023-02-03T15:41:24;1.80;97.60
43647;DHT22;56152;49.996;18.980;2023-02-03T15:46:35;1.90;97.60
43647;DHT22;56152;49.996;18.980;2023-02-03T15:51:42;1.90;97.60
43647;DHT22;56152;49.996;18.980;2023-02-03T15:56:53;2.00;97.70
43647;DHT22;56152;49.996;18.980;2023-02-03T16:02:18;2.10;97.80
43647;DHT22;56152;49.996;18.980;2023-02-03T16:07:25;2.20;97.70
43647;DHT22;56152;49.996;18.980;2023-02-03T16:12:29;2.20;97.70
43647;DHT22;56152;49.996;18.980;2023-02-03T16:17:33;2.30;97.70
43647;DHT22;56152;49.996;18.980;2023-02-03T16:22:39;2.20;97.70
43647;DHT22;56152;49.996;18.980;2023-02-03T16:27:43;2.20;97.70
43647;DHT22;56152;49.996;18.980;2023-02-03T16:32:59;2.10;97.80
43647;DHT22;56152;49.996;18.980;2023-02-03T16:38:31;2.00;97.80
43647;DHT22;56152;49.996;18.980;2023-02-03T16:43:51;2.10;97.90
43647;DHT22;56152;49.996;18.980;2023-02-03T16:49:13;2.00;97.90
43647;DHT22;56152;49.996;18.980;2023-02-03T16:54:38;2.00;98.00
43647;DHT22;56152;49.996;18.980;2023-02-03T16:59:41;1.90;98.00
43647;DHT22;56152;49.996;18.980;2023-02-03T17:04:44;2.00;98.10
43647;DHT22;56152;49.996;18.980;2023-02-03T17:09:48;2.00;98.10
43647;DHT22;56152;49.996;18.980;2023-02-03T17:14:52;2.00;98.10
43647;DHT22;56152;49.996;18.980;2023-02-03T17:19:57;2.00;98.10
43647;DHT22;56152;49.996;18.980;2023-02-03T17:25:02;2.00;98.20
43647;DHT22;56152;49.996;18.980;2023-02-03T17:30:06;2.00;98.20
43647;DHT22;56152;49.996;18.980;2023-02-03T17:35:09;2.00;98.20
43647;DHT22;56152;49.996;18.980;2023-02-03T17:40:13;2.00;98.20
43647;DHT22;56152;49.996;18.980;2023-02-03T17:45:15;2.00;98.20
43647;DHT22;56152;49.996;18.980;2023-02-03T17:50:18;2.00;98.30
43647;DHT22;56152;49.996;18.980;2023-02-03T17:55:22;2.10;98.30
43647;DHT22;56152;49.996;18.980;2023-02-03T18:00:24;2.10;98.30
43647;DHT22;56152;49.996;18.980;2023-02-03T18:05:27;2.00;98.30
43647;DHT22;56152;49.996;18.980;2023-02-03T18:10:31;2.10;98.30
43647;DHT22;56152;49.996;18.980;2023-02-03T18:15:37;2.10;98.40
43647;DHT22;56152;49.996;18.980;2023-02-03T18:20:40;2.10;98.40
43647;DHT22;56152;49.996;18.980;2023-02-03T18:25:51;2.10;98.40
43647;DHT22;56152;49.996;18.980;2023-02-03T18:30:57;2.20;98.50
43647;DHT22;56152;49.996;18.980;2023-02-03T18:36:01;2.30;98.40
43647;DHT22;56152;49.996;18.980;2023-02-03T18:41:07;2.30;98.40
43647;DHT22;56152;49.996;18.980;2023-02-03T18:46:11;2.30;98.30
43647;DHT22;56152;49.996;18.980;2023-02-03T18:51:14;2.30;98.30
43647;DHT22;56152;49.996;18.980;2023-02-03T18:56:23;2.40;98.40
43647;DHT22;56152;49.996;18.980;2023-02-03T19:01:28;2.40;98.40
43647;DHT22;56152;49.996;18.980;2023-02-03T19:06:35;2.50;98.40
43647;DHT22;56152;49.996;18.980;2023-02-03T19:11:46;2.50;98.30
43647;DHT22;56152;49.996;18.980;2023-02-03T19:16:48;2.40;98.30
43647;DHT22;56152;49.996;18.980;2023-02-03T19:21:52;2.40;98.30
43647;DHT22;56152;49.996;18.980;2023-02-03T19:26:56;2.30;98.30
43647;DHT22;56152;49.996;18.980;2023-02-03T19:32:08;2.30;98.30
43647;DHT22;56152;49.996;18.980;2023-02-03T19:37:14;2.30;98.20
43647;DHT22;56152;49.996;18.980;2023-02-03T19:42:18;2.20;98.20
43647;DHT22;56152;49.996;18.980;2023-02-03T19:47:20;2.10;98.30
43647;DHT22;56152;49.996;18.980;2023-02-03T19:52:22;2.00;98.20
43647;DHT22;56152;49.996;18.980;2023-02-03T19:57:33;1.90;98.30
43647;DHT22;56152;49.996;18.980;2023-02-03T20:02:37;1.90;98.50
43647;DHT22;56152;49.996;18.980;2023-02-03T20:07:39;1.80;98.40
43647;DHT22;56152;49.996;18.980;2023-02-03T20:12:44;1.70;98.50
43647;DHT22;56152;49.996;18.980;2023-02-03T20:17:48;1.70;98.50
43647;DHT22;56152;49.996;18.980;2023-02-03T20:22:57;1.70;98.50
43647;DHT22;56152;49.996;18.980;2023-02-03T20:28:05;1.60;98.50
43647;DHT22;56152;49.996;18.980;2023-02-03T20:33:08;1.60;98.60
43647;DHT22;56152;49.996;18.980;2023-02-03T20:38:13;1.60;98.60
43647;DHT22;56152;49.996;18.980;2023-02-03T20:43:19;1.60;98.60
43647;DHT22;56152;49.996;18.980;2023-02-03T20:48:28;1.60;98.70
43647;DHT22;56152;49.996;18.980;2023-02-03T20:53:30;1.70;98.70
43647;DHT22;56152;49.996;18.980;2023-02-03T20:58:36;1.70;98.70
43647;DHT22;56152;49.996;18.980;2023-02-03T21:03:38;1.70;98.70
43647;DHT22;56152;49.996;18.980;2023-02-03T21:09:01;1.70;98.70
43647;DHT22;56152;49.996;18.980;2023-02-03T21:14:19;1.70;98.70
43647;DHT22;56152;49.996;18.980;2023-02-03T21:19:27;1.70;98.70
43647;DHT22;56152;49.996;18.980;2023-02-03T21:24:34;1.80;98.80
43647;DHT22;56152;49.996;18.980;2023-02-03T21:29:42;1.70;98.80
43647;DHT22;56152;49.996;18.980;2023-02-03T21:34:45;1.80;98.80
43647;DHT22;56152;49.996;18.980;2023-02-03T21:39:47;1.80;98.80
43647;DHT22;56152;49.996;18.980;2023-02-03T21:44:54;1.90;98.80
43647;DHT22;56152;49.996;18.980;2023-02-03T21:50:00;1.90;98.80
43647;DHT22;56152;49.996;18.980;2023-02-03T21:55:09;2.00;98.80
43647;DHT22;56152;49.996;18.980;2023-02-03T22:00:38;2.10;98.80
43647;DHT22;56152;49.996;18.980;2023-02-03T22:05:43;2.10;98.80
43647;DHT22;56152;49.996;18.980;2023-02-03T22:10:45;2.20;98.80
43647;DHT22;56152;49.996;18.980;2023-02-03T22:15:49;2.20;98.80
43647;DHT22;56152;49.996;18.980;2023-02-03T22:22:52;2.20;98.80
43647;DHT22;56152;49.996;18.980;2023-02-03T22:27:48;2.20;98.80
43647;DHT22;56152;49.996;18.980;2023-02-03T22:33:18;2.20;98.80
43647;DHT22;56152;49.996;18.980;2023-02-03T22:38:43;2.20;98.80
43647;DHT22;56152;49.996;18.980;2023-02-03T22:43:46;2.30;98.90
43647;DHT22;56152;49.996;18.980;2023-02-03T22:48:50;2.30;98.90
43647;DHT22;56152;49.996;18.980;2023-02-03T22:53:54;2.30;98.90
43647;DHT22;56152;49.996;18.980;2023-02-03T22:59:04;2.30;98.90
43647;DHT22;56152;49.996;18.980;2023-02-03T23:04:17;2.30;98.90
43647;DHT22;56152;49.996;18.980;2023-02-03T23:09:25;2.30;98.90
43647;DHT22;56152;49.996;18.980;2023-02-03T23:14:27;2.30;98.90
43647;DHT22;56152;49.996;18.980;2023-02-03T23:19:31;2.40;99.00
43647;DHT22;56152;49.996;18.980;2023-02-03T23:24:33;2.40;99.00
43647;DHT22;56152;49.996;18.980;2023-02-03T23:29:36;2.40;99.00
43647;DHT22;56152;49.996;18.980;2023-02-03T23:34:40;2.50;99.00
43647;DHT22;56152;49.996;18.980;2023-02-03T23:40:21;2.50;99.00
43647;DHT22;56152;49.996;18.980;2023-02-03T23:45:24;2.60;99.00
43647;DHT22;56152;49.996;18.980;2023-02-03T23:50:29;2.50;98.90
43647;DHT22;56152;49.996;18.980;2023-02-03T23:55:37;2.50;98.90
